createdAt,value
2018-11-05T00:01:43.839Z,6.60
2018-11-05T00:04:12.197Z,6.40
2018-11-05T00:06:40.504Z,6.30
2018-11-05T00:09:10.196Z,6.20
2018-11-05T00:11:38.528Z,6.40
2018-11-05T00:14:07.580Z,6.50
2018-11-05T00:16:35.923Z,6.70
2018-11-05T00:19:04.255Z,6.50
2018-11-05T00:21:32.565Z,6.20
2018-11-05T00:24:00.904Z,6.00
2018-11-05T00:26:29.216Z,5.90
2018-11-05T00:28:57.572Z,5.80
2018-11-05T00:31:25.888Z,5.80
2018-11-05T00:33:54.205Z,5.90
2018-11-05T00:36:22.511Z,6.00
2018-11-05T00:38:50.858Z,6.10
2018-11-05T00:41:19.163Z,6.10
2018-11-05T00:43:47.480Z,6.10
2018-11-05T00:46:15.807Z,6.10
2018-11-05T00:48:44.124Z,6.20
2018-11-05T00:51:12.431Z,6.10
2018-11-05T00:53:40.788Z,6.10
2018-11-05T00:56:09.092Z,6.10
2018-11-05T00:58:37.413Z,6.00
2018-11-05T01:01:05.955Z,6.00
2018-11-05T01:03:34.280Z,6.00
2018-11-05T01:06:02.601Z,5.90
2018-11-05T01:08:30.929Z,5.90
2018-11-05T01:10:59.240Z,5.80
2018-11-05T01:13:27.596Z,5.80
2018-11-05T01:15:55.900Z,5.90
2018-11-05T01:18:24.243Z,6.10
2018-11-05T01:20:52.565Z,6.30
2018-11-05T01:23:20.897Z,6.30
2018-11-05T01:25:49.199Z,5.90
2018-11-05T01:28:17.553Z,5.70
2018-11-05T01:30:45.881Z,5.70
2018-11-05T01:33:14.208Z,5.70
2018-11-05T01:35:42.523Z,5.80
2018-11-05T01:38:10.852Z,5.80
2018-11-05T01:40:39.259Z,5.90
2018-11-05T01:43:07.592Z,5.80
2018-11-05T01:45:35.900Z,5.80
2018-11-05T01:48:04.288Z,5.70
2018-11-05T01:50:32.593Z,5.70
2018-11-05T01:53:00.935Z,5.70
2018-11-05T01:55:29.256Z,5.90
2018-11-05T01:57:57.585Z,6.10
2018-11-05T02:00:25.900Z,6.10
2018-11-05T02:02:54.241Z,6.30
2018-11-05T02:05:22.552Z,6.30
2018-11-05T02:07:50.871Z,6.20
2018-11-05T02:10:19.708Z,6.20
2018-11-05T02:12:47.984Z,6.30
2018-11-05T02:15:16.350Z,6.30
2018-11-05T02:17:45.703Z,6.10
2018-11-05T02:20:15.051Z,6.00
2018-11-05T02:22:43.359Z,6.20
2018-11-05T02:25:12.657Z,6.00
2018-11-05T02:27:41.528Z,6.00
2018-11-05T02:30:15.034Z,6.00
2018-11-05T02:32:43.336Z,5.90
2018-11-05T02:35:12.880Z,5.80
2018-11-05T02:37:42.175Z,5.80
2018-11-05T02:40:13.363Z,5.80
2018-11-05T02:42:42.323Z,5.80
2018-11-05T02:45:12.169Z,5.70
2018-11-05T02:47:40.475Z,5.80
2018-11-05T02:50:10.184Z,5.70
2018-11-05T02:52:39.375Z,5.70
2018-11-05T02:55:08.100Z,5.60
2018-11-05T02:57:36.875Z,5.50
2018-11-05T03:00:11.570Z,5.50
2018-11-05T03:02:40.014Z,5.40
2018-11-05T03:05:10.576Z,5.30
2018-11-05T03:07:38.881Z,5.30
2018-11-05T03:10:08.289Z,5.20
2018-11-05T03:12:36.637Z,5.10
2018-11-05T03:15:06.181Z,5.10
2018-11-05T03:17:34.521Z,4.90
2018-11-05T03:20:03.068Z,5.10
2018-11-05T03:22:31.384Z,5.30
2018-11-05T03:24:59.707Z,5.40
2018-11-05T03:27:28.016Z,5.40
2018-11-05T03:29:56.352Z,5.20
2018-11-05T03:32:24.661Z,5.10
2018-11-05T03:34:52.995Z,5.10
2018-11-05T03:37:21.300Z,5.10
2018-11-05T03:39:49.628Z,4.90
2018-11-05T03:42:17.958Z,4.90
2018-11-05T03:44:46.283Z,4.90
2018-11-05T03:47:14.596Z,4.80
2018-11-05T03:49:42.940Z,4.70
2018-11-05T03:52:11.276Z,4.50
2018-11-05T03:54:39.616Z,4.40
2018-11-05T03:57:07.937Z,4.40
2018-11-05T03:59:36.326Z,4.50
2018-11-05T04:02:04.679Z,4.60
2018-11-05T04:04:33.004Z,4.50
2018-11-05T04:07:01.308Z,4.60
2018-11-05T04:09:29.648Z,4.50
2018-11-05T04:11:57.981Z,4.50
2018-11-05T04:14:26.325Z,4.40
2018-11-05T04:16:54.632Z,4.30
2018-11-05T04:19:22.951Z,4.30
2018-11-05T04:21:51.264Z,4.30
2018-11-05T04:24:19.603Z,4.10
2018-11-05T04:26:47.925Z,4.00
2018-11-05T04:29:16.354Z,4.00
2018-11-05T04:31:44.660Z,3.80
2018-11-05T04:34:13.008Z,4.00
2018-11-05T04:36:41.312Z,4.00
2018-11-05T04:39:11.759Z,3.80
2018-11-05T04:41:40.128Z,3.80
2018-11-05T04:44:08.805Z,3.80
2018-11-05T04:46:37.389Z,3.80
2018-11-05T04:49:06.068Z,3.60
2018-11-05T04:51:34.409Z,3.70
2018-11-05T04:54:02.734Z,3.80
2018-11-05T04:56:31.081Z,3.80
2018-11-05T04:58:59.409Z,3.70
2018-11-05T05:01:27.736Z,3.60
2018-11-05T05:03:56.048Z,3.70
2018-11-05T05:06:24.385Z,3.80
2018-11-05T05:08:52.713Z,3.80
2018-11-05T05:11:21.049Z,3.80
2018-11-05T05:13:49.395Z,3.70
2018-11-05T05:16:17.734Z,3.60
2018-11-05T05:18:46.064Z,3.60
2018-11-05T05:21:14.395Z,3.60
2018-11-05T05:23:42.691Z,3.70
2018-11-05T05:26:11.031Z,3.70
2018-11-05T05:28:39.345Z,3.70
2018-11-05T05:31:07.831Z,3.80
2018-11-05T05:33:36.450Z,3.90
2018-11-05T05:36:05.205Z,4.00
2018-11-05T05:38:33.524Z,3.90
2018-11-05T05:41:01.880Z,3.90
2018-11-05T05:43:30.167Z,3.80
2018-11-05T05:45:58.500Z,3.80
2018-11-05T05:48:26.820Z,3.80
2018-11-05T05:50:55.168Z,3.90
2018-11-05T05:53:23.495Z,4.00
2018-11-05T05:55:51.854Z,4.00
2018-11-05T05:58:20.177Z,4.00
2018-11-05T06:00:48.512Z,4.00
2018-11-05T06:03:16.819Z,4.00
2018-11-05T06:05:45.215Z,4.00
2018-11-05T06:08:13.543Z,4.00
2018-11-05T06:10:41.881Z,4.00
2018-11-05T06:13:10.204Z,4.00
2018-11-05T06:15:38.526Z,4.00
2018-11-05T06:18:06.844Z,4.00
2018-11-05T06:20:35.293Z,4.00
2018-11-05T06:23:03.617Z,4.00
2018-11-05T06:25:31.980Z,3.90
2018-11-05T06:28:00.301Z,3.90
2018-11-05T06:30:28.717Z,4.00
2018-11-05T06:32:57.026Z,4.00
2018-11-05T06:35:25.455Z,4.00
2018-11-05T06:37:53.691Z,4.20
2018-11-05T06:40:22.087Z,4.10
2018-11-05T06:42:50.545Z,4.20
2018-11-05T06:45:20.133Z,4.20
2018-11-05T06:47:48.768Z,4.20
2018-11-05T06:50:19.228Z,4.30
2018-11-05T06:52:47.650Z,4.30
2018-11-05T06:55:16.411Z,4.30
2018-11-05T06:57:44.790Z,4.30
2018-11-05T07:00:15.349Z,4.10
2018-11-05T07:02:43.941Z,4.10
2018-11-05T07:05:12.548Z,4.10
2018-11-05T07:07:40.868Z,4.00
2018-11-05T07:10:10.744Z,4.10
2018-11-05T07:12:39.690Z,4.20
2018-11-05T07:15:09.568Z,4.20
2018-11-05T07:17:37.911Z,4.20
2018-11-05T07:20:08.295Z,4.20
2018-11-05T07:22:36.676Z,4.20
2018-11-05T07:25:06.216Z,4.10
2018-11-05T07:27:34.564Z,4.20
2018-11-05T07:30:03.088Z,4.20
2018-11-05T07:32:31.424Z,4.30
2018-11-05T07:34:59.720Z,4.30
2018-11-05T07:37:28.040Z,4.30
2018-11-05T07:39:56.365Z,4.20
2018-11-05T07:42:24.693Z,4.20
2018-11-05T07:44:53.100Z,4.30
2018-11-05T07:47:21.427Z,4.40
2018-11-05T07:49:49.716Z,4.50
2018-11-05T07:52:18.064Z,4.50
2018-11-05T07:54:46.377Z,4.70
2018-11-05T07:57:14.713Z,4.80
2018-11-05T07:59:43.017Z,5.00
2018-11-05T08:02:11.342Z,5.00
2018-11-05T08:04:39.669Z,5.00
2018-11-05T08:07:08.084Z,5.10
2018-11-05T08:09:36.384Z,5.30
2018-11-05T08:12:05.261Z,5.40
2018-11-05T08:14:33.687Z,5.50
2018-11-05T08:17:01.970Z,5.30
2018-11-05T08:19:30.272Z,5.40
2018-11-05T08:21:58.661Z,5.70
2018-11-05T08:24:26.970Z,5.80
2018-11-05T08:26:55.316Z,5.70
2018-11-05T08:29:23.631Z,5.70
2018-11-05T08:31:51.952Z,5.80
2018-11-05T08:34:20.394Z,6.00
2018-11-05T08:36:48.667Z,6.20
2018-11-05T08:39:16.964Z,6.40
2018-11-05T08:41:45.295Z,6.50
2018-11-05T08:44:13.596Z,6.70
2018-11-05T08:46:41.969Z,6.90
2018-11-05T08:49:10.252Z,7.20
2018-11-05T08:51:38.824Z,7.30
2018-11-05T08:54:07.007Z,7.50
2018-11-05T08:56:35.277Z,8.00
2018-11-05T08:59:03.776Z,8.20
2018-11-05T09:01:32.109Z,8.20
2018-11-05T09:04:00.844Z,8.20
2018-11-05T09:06:29.205Z,8.30
2018-11-05T09:08:57.518Z,8.40
2018-11-05T09:11:26.744Z,8.50
2018-11-05T09:13:54.725Z,8.70
2018-11-05T09:16:23.057Z,8.70
2018-11-05T09:18:51.507Z,8.80
2018-11-05T09:21:19.837Z,8.90
2018-11-05T09:23:48.140Z,9.00
2018-11-05T09:26:16.588Z,9.00
2018-11-05T09:28:44.914Z,9.10
2018-11-05T09:31:13.324Z,9.10
2018-11-05T09:33:41.728Z,9.20
2018-11-05T09:36:10.062Z,9.40
2018-11-05T09:38:38.439Z,9.40
2018-11-05T09:41:07.757Z,9.50
2018-11-05T09:43:36.273Z,9.50
2018-11-05T09:46:04.592Z,9.50
2018-11-05T09:48:32.920Z,9.60
2018-11-05T09:51:01.230Z,9.70
2018-11-05T09:53:29.577Z,9.90
2018-11-05T09:55:57.887Z,10.20
2018-11-05T09:58:26.276Z,10.70
2018-11-05T10:00:54.600Z,10.90
2018-11-05T10:03:23.224Z,11.10
2018-11-05T10:05:51.259Z,11.20
2018-11-05T10:08:19.589Z,11.30
2018-11-05T10:10:47.904Z,11.50
2018-11-05T10:13:16.223Z,11.70
2018-11-05T10:15:44.553Z,12.00
2018-11-05T10:18:13.005Z,12.20
2018-11-05T10:20:41.329Z,12.30
2018-11-05T10:23:09.647Z,12.40
2018-11-05T10:25:37.961Z,12.50
2018-11-05T10:28:07.740Z,12.50
2018-11-05T10:30:36.076Z,12.60
2018-11-05T10:33:04.645Z,12.80
2018-11-05T10:35:38.405Z,12.80
2018-11-05T10:38:06.735Z,13.00
2018-11-05T10:40:35.144Z,13.20
2018-11-05T10:43:03.464Z,13.40
2018-11-05T10:45:31.800Z,13.40
2018-11-05T10:48:00.132Z,13.30
2018-11-05T10:50:28.539Z,13.30
2018-11-05T10:52:56.804Z,13.40
2018-11-05T10:55:25.138Z,13.50
2018-11-05T10:57:53.457Z,13.80
2018-11-05T11:00:27.319Z,13.90
2018-11-05T11:03:00.951Z,14.00
2018-11-05T11:05:30.295Z,13.70
2018-11-05T11:07:59.485Z,13.30
2018-11-05T11:10:28.608Z,13.20
2018-11-05T11:12:57.139Z,13.20
2018-11-05T11:15:25.613Z,13.30
2018-11-05T11:17:54.086Z,13.10
2018-11-05T11:20:22.444Z,13.20
2018-11-05T11:22:50.837Z,13.30
2018-11-05T11:25:19.204Z,13.10
2018-11-05T11:27:47.571Z,13.10
2018-11-05T11:30:16.512Z,12.90
2018-11-05T11:32:45.554Z,12.80
2018-11-05T11:35:14.072Z,12.80
2018-11-05T11:37:42.405Z,12.80
2018-11-05T11:40:14.780Z,13.30
2018-11-05T11:42:44.239Z,13.30
2018-11-05T11:45:13.473Z,13.20
2018-11-05T11:47:41.805Z,13.00
2018-11-05T11:50:11.912Z,13.30
2018-11-05T11:52:40.310Z,13.40
2018-11-05T11:55:10.638Z,13.70
2018-11-05T11:57:39.324Z,14.20
2018-11-05T12:00:11.197Z,14.30
2018-11-05T12:02:39.512Z,14.30
2018-11-05T12:05:08.543Z,14.10
2018-11-05T12:07:36.768Z,14.00
2018-11-05T12:10:09.393Z,14.00
2018-11-05T12:12:37.723Z,14.00
2018-11-05T12:15:07.177Z,13.70
2018-11-05T12:17:35.318Z,13.60
2018-11-05T12:20:03.660Z,13.60
2018-11-05T12:22:31.988Z,13.40
2018-11-05T12:25:00.365Z,13.30
2018-11-05T12:27:28.673Z,13.50
2018-11-05T12:29:57.018Z,13.60
2018-11-05T12:32:25.524Z,13.60
2018-11-05T12:34:53.864Z,13.70
2018-11-05T12:37:22.169Z,13.60
2018-11-05T12:39:50.500Z,13.50
2018-11-05T12:42:18.836Z,13.50
2018-11-05T12:44:47.223Z,13.40
2018-11-05T12:47:15.573Z,13.50
2018-11-05T12:49:43.912Z,13.60
2018-11-05T12:52:12.249Z,13.60
2018-11-05T12:54:40.591Z,13.50
2018-11-05T12:57:08.915Z,13.60
2018-11-05T12:59:37.260Z,13.50
2018-11-05T13:02:05.760Z,13.60
2018-11-05T13:04:34.196Z,13.70
2018-11-05T13:07:02.578Z,13.70
2018-11-05T13:09:30.871Z,13.70
2018-11-05T13:12:00.042Z,13.70
2018-11-05T13:14:28.368Z,13.70
2018-11-05T13:16:56.724Z,13.60
2018-11-05T13:19:25.064Z,13.60
2018-11-05T13:21:53.403Z,13.60
2018-11-05T13:24:21.749Z,13.60
2018-11-05T13:26:50.117Z,13.60
2018-11-05T13:29:18.464Z,13.50
2018-11-05T13:31:46.789Z,13.20
2018-11-05T13:34:15.160Z,13.20
2018-11-05T13:36:43.561Z,13.10
2018-11-05T13:39:11.800Z,12.90
2018-11-05T13:41:40.144Z,12.90
2018-11-05T13:44:08.480Z,12.90
2018-11-05T13:46:37.084Z,12.80
2018-11-05T13:49:05.699Z,12.80
2018-11-05T13:51:33.780Z,12.80
2018-11-05T13:54:02.114Z,12.80
2018-11-05T13:56:30.461Z,12.90
2018-11-05T13:58:58.812Z,12.80
2018-11-05T14:01:27.156Z,12.80
2018-11-05T14:03:55.476Z,12.80
2018-11-05T14:06:23.821Z,12.80
2018-11-05T14:08:52.352Z,12.80
2018-11-05T14:11:20.695Z,12.80
2018-11-05T14:13:49.051Z,12.90
2018-11-05T14:16:17.385Z,12.90
2018-11-05T14:18:45.736Z,12.90
2018-11-05T14:21:14.075Z,12.90
2018-11-05T14:23:42.385Z,12.90
2018-11-05T14:26:10.844Z,13.00
2018-11-05T14:28:39.289Z,13.00
2018-11-05T14:31:07.445Z,13.00
2018-11-05T14:33:35.779Z,13.10
2018-11-05T14:36:04.113Z,13.10
2018-11-05T14:38:32.447Z,13.00
2018-11-05T14:41:00.787Z,12.90
2018-11-05T14:43:29.179Z,12.70
2018-11-05T14:45:57.528Z,12.60
2018-11-05T14:48:25.865Z,12.60
2018-11-05T14:50:54.280Z,12.60
2018-11-05T14:53:22.593Z,12.70
2018-11-05T14:55:50.923Z,12.80
2018-11-05T14:58:19.239Z,12.60
2018-11-05T15:00:47.612Z,12.60
2018-11-05T15:03:15.932Z,12.50
2018-11-05T15:05:44.286Z,12.40
2018-11-05T15:08:12.601Z,12.40
2018-11-05T15:10:40.929Z,12.40
2018-11-05T15:13:09.331Z,12.50
2018-11-05T15:15:37.636Z,12.50
2018-11-05T15:18:06.144Z,12.40
2018-11-05T15:20:34.403Z,12.40
2018-11-05T15:23:02.758Z,12.50
2018-11-05T15:25:31.139Z,12.40
2018-11-05T15:27:59.445Z,12.30
2018-11-05T15:30:27.759Z,12.30
2018-11-05T15:32:56.125Z,12.30
2018-11-05T15:35:24.460Z,12.40
2018-11-05T15:37:52.785Z,12.50
2018-11-05T15:40:21.967Z,12.40
2018-11-05T15:42:50.318Z,12.20
2018-11-05T15:45:19.949Z,12.20
2018-11-05T15:47:48.277Z,12.40
2018-11-05T15:50:17.860Z,12.30
2018-11-05T15:52:46.493Z,12.30
2018-11-05T15:55:14.723Z,12.30
2018-11-05T15:57:43.089Z,12.30
2018-11-05T16:00:15.440Z,12.10
2018-11-05T16:02:44.409Z,12.20
2018-11-05T16:05:12.714Z,12.20
2018-11-05T16:07:41.035Z,12.30
2018-11-05T16:10:09.535Z,12.20
2018-11-05T16:12:38.201Z,12.10
2018-11-05T16:15:07.377Z,12.20
2018-11-05T16:17:36.107Z,12.10
2018-11-05T16:20:05.293Z,12.10
2018-11-05T16:22:33.682Z,12.10
2018-11-05T16:25:02.185Z,12.10
2018-11-05T16:27:30.920Z,12.00
2018-11-05T16:29:59.580Z,12.10
2018-11-05T16:32:27.924Z,12.10
2018-11-05T16:34:56.847Z,12.10
2018-11-05T16:37:25.112Z,12.10
2018-11-05T16:39:53.451Z,12.10
2018-11-05T16:42:21.809Z,12.10
2018-11-05T16:44:50.353Z,12.10
2018-11-05T16:47:18.693Z,12.10
2018-11-05T16:49:47.017Z,12.00
2018-11-05T16:52:15.441Z,12.00
2018-11-05T16:54:43.747Z,11.90
2018-11-05T16:57:12.073Z,12.00
2018-11-05T16:59:40.395Z,12.00
2018-11-05T17:02:14.153Z,12.00
2018-11-05T17:04:43.012Z,12.00
2018-11-05T17:07:11.347Z,12.10
2018-11-05T17:09:39.815Z,12.00
2018-11-05T17:12:08.191Z,12.00
2018-11-05T17:14:36.532Z,12.00
2018-11-05T17:17:04.884Z,11.90
2018-11-05T17:19:33.665Z,11.90
2018-11-05T17:22:02.017Z,11.80
2018-11-05T17:24:30.345Z,11.60
2018-11-05T17:26:58.679Z,11.60
2018-11-05T17:29:27.104Z,11.70
2018-11-05T17:31:55.457Z,11.80
2018-11-05T17:34:23.795Z,11.80
2018-11-05T17:36:52.421Z,11.80
2018-11-05T17:39:20.732Z,11.70
2018-11-05T17:41:49.080Z,11.70
2018-11-05T17:44:17.415Z,11.60
2018-11-05T17:46:45.787Z,11.60
2018-11-05T17:49:14.260Z,11.50
2018-11-05T17:51:42.615Z,11.60
2018-11-05T17:54:10.965Z,11.60
2018-11-05T17:56:39.313Z,11.40
2018-11-05T17:59:07.848Z,11.40
2018-11-05T18:01:36.178Z,11.50
2018-11-05T18:04:04.590Z,11.50
2018-11-05T18:06:33.133Z,11.60
2018-11-05T18:09:01.789Z,11.60
2018-11-05T18:11:29.945Z,11.60
2018-11-05T18:13:58.272Z,11.70
2018-11-05T18:16:26.611Z,11.70
2018-11-05T18:18:55.038Z,11.70
2018-11-05T18:21:23.363Z,11.60
2018-11-05T18:23:51.713Z,11.70
2018-11-05T18:26:20.036Z,11.70
2018-11-05T18:28:48.465Z,11.70
2018-11-05T18:31:16.855Z,11.60
2018-11-05T18:33:45.128Z,11.50
2018-11-05T18:36:13.452Z,11.40
2018-11-05T18:38:41.794Z,11.50
2018-11-05T18:41:10.126Z,11.60
2018-11-05T18:43:38.576Z,11.60
2018-11-05T18:46:07.168Z,11.60
2018-11-05T18:48:35.496Z,11.70
2018-11-05T18:51:03.853Z,11.70
2018-11-05T18:53:32.195Z,11.60
2018-11-05T18:56:00.499Z,11.60
2018-11-05T18:58:28.856Z,11.50
2018-11-05T19:00:57.175Z,11.40
2018-11-05T19:03:25.612Z,11.40
2018-11-05T19:05:53.871Z,11.40
2018-11-05T19:08:22.217Z,11.40
2018-11-05T19:10:50.528Z,11.30
2018-11-05T19:13:18.861Z,11.30
2018-11-05T19:15:47.193Z,11.20
2018-11-05T19:18:15.533Z,11.30
2018-11-05T19:20:43.840Z,11.20
2018-11-05T19:23:12.271Z,11.30
2018-11-05T19:25:40.536Z,11.10
2018-11-05T19:28:08.864Z,10.90
2018-11-05T19:30:37.245Z,10.90
2018-11-05T19:33:06.453Z,10.80
2018-11-05T19:35:34.748Z,10.70
2018-11-05T19:38:03.072Z,10.80
2018-11-05T19:40:31.397Z,10.70
2018-11-05T19:42:59.799Z,10.70
2018-11-05T19:45:28.105Z,10.70
2018-11-05T19:47:56.432Z,10.60
2018-11-05T19:50:25.150Z,10.50
2018-11-05T19:52:54.175Z,10.40
2018-11-05T19:55:22.638Z,10.40
2018-11-05T19:57:51.868Z,10.40
2018-11-05T20:00:21.818Z,10.40
2018-11-05T20:02:50.503Z,10.30
2018-11-05T20:05:19.131Z,10.20
2018-11-05T20:07:47.901Z,10.10
2018-11-05T20:10:16.365Z,10.20
2018-11-05T20:12:45.329Z,10.10
2018-11-05T20:15:14.433Z,10.00
2018-11-05T20:17:43.826Z,10.10
2018-11-05T20:20:13.512Z,10.00
2018-11-05T20:22:41.911Z,10.20
2018-11-05T20:25:10.608Z,10.40
2018-11-05T20:27:39.436Z,10.50
2018-11-05T20:30:10.775Z,10.50
2018-11-05T20:32:39.652Z,10.60
2018-11-05T20:35:08.059Z,10.60
2018-11-05T20:37:36.397Z,10.60
2018-11-05T20:40:05.263Z,10.60
2018-11-05T20:42:33.532Z,10.60
2018-11-05T20:45:01.889Z,10.70
2018-11-05T20:47:30.205Z,10.70
2018-11-05T20:49:58.544Z,10.40
2018-11-05T20:52:26.851Z,10.50
2018-11-05T20:54:55.172Z,10.50
2018-11-05T20:57:23.508Z,10.50
2018-11-05T20:59:51.857Z,10.40
2018-11-05T21:02:20.208Z,10.30
2018-11-05T21:04:48.536Z,10.30
2018-11-05T21:07:16.895Z,10.10
2018-11-05T21:09:45.321Z,10.10
2018-11-05T21:12:13.648Z,10.00
2018-11-05T21:14:42.058Z,9.90
2018-11-05T21:17:10.315Z,9.90
2018-11-05T21:19:38.661Z,9.70
2018-11-05T21:22:08.929Z,9.60
2018-11-05T21:24:37.244Z,9.50
2018-11-05T21:27:05.716Z,9.20
2018-11-05T21:29:33.956Z,9.10
2018-11-05T21:32:02.265Z,9.10
2018-11-05T21:34:30.725Z,9.20
2018-11-05T21:36:59.288Z,9.20
2018-11-05T21:39:27.617Z,9.30
2018-11-05T21:41:55.916Z,9.10
2018-11-05T21:44:24.264Z,9.20
2018-11-05T21:46:52.580Z,9.20
2018-11-05T21:49:20.903Z,9.10
2018-11-05T21:51:49.267Z,8.90
2018-11-05T21:54:17.615Z,9.00
2018-11-05T21:56:45.929Z,8.90
2018-11-05T21:59:14.276Z,9.00
2018-11-05T22:01:42.588Z,8.80
2018-11-05T22:04:10.907Z,8.60
2018-11-05T22:06:39.207Z,8.70
2018-11-05T22:09:08.197Z,8.70
2018-11-05T22:11:36.496Z,8.50
2018-11-05T22:14:05.369Z,8.50
2018-11-05T22:16:33.693Z,8.60
2018-11-05T22:19:02.039Z,8.50
2018-11-05T22:21:30.351Z,8.50
2018-11-05T22:23:58.687Z,8.40
2018-11-05T22:26:26.999Z,8.40
2018-11-05T22:28:55.337Z,8.20
2018-11-05T22:31:23.644Z,8.00
2018-11-05T22:33:51.981Z,7.90
2018-11-05T22:36:20.280Z,7.80
2018-11-05T22:38:48.657Z,7.80
2018-11-05T22:41:17.010Z,7.80
2018-11-05T22:43:45.353Z,7.70
2018-11-05T22:46:13.672Z,7.80
2018-11-05T22:48:42.011Z,7.80
2018-11-05T22:51:10.357Z,7.70
2018-11-05T22:53:38.685Z,7.60
2018-11-05T22:56:07.144Z,7.30
2018-11-05T22:58:35.448Z,7.30
2018-11-05T23:01:06.697Z,7.40
2018-11-05T23:03:34.997Z,7.50
2018-11-05T23:06:03.347Z,7.50
2018-11-05T23:08:31.644Z,7.40
2018-11-05T23:11:00.172Z,7.60
2018-11-05T23:13:28.492Z,7.50
2018-11-05T23:15:56.811Z,7.40
2018-11-05T23:18:25.124Z,7.50
2018-11-05T23:20:53.447Z,7.60
2018-11-05T23:23:21.768Z,7.70
2018-11-05T23:25:50.093Z,8.00
2018-11-05T23:28:18.399Z,8.00
2018-11-05T23:30:46.720Z,7.90
2018-11-05T23:33:15.079Z,8.10
2018-11-05T23:35:43.456Z,8.10
2018-11-05T23:38:11.770Z,8.10
2018-11-05T23:40:40.130Z,8.30
2018-11-05T23:43:08.451Z,8.40
2018-11-05T23:45:36.792Z,8.50
2018-11-05T23:48:05.364Z,8.50
2018-11-05T23:50:33.697Z,8.50
2018-11-05T23:53:02.009Z,8.50
2018-11-05T23:55:30.348Z,8.30
2018-11-05T23:57:58.681Z,8.20
